Time;durP1;ratioP1;P1;durP2;ratioP2;P2;SDS_P1;SDS_P2;PMS_P1;PMS_P2;Temp;Humidity;BMP_temperature;BMP_pressure;BME280_temperature;BME280_humidity;BME280_pressure;Samples;Min_cycle;Max_cycle;Signal;HPM_P1;HPM_P2
2022/03/11 00:02:01;;;;;;;10.20;6.70;;;;;;;7.43;38.65;100925.78;5045801;28;20037;-72
2022/03/11 00:04:26;;;;;;;11.65;6.20;;;;;;;7.32;38.99;100929.25;5043429;28;20026;-72
2022/03/11 00:06:52;;;;;;;10.27;6.13;;;;;;;7.34;39.38;100926.50;5053576;28;20490;-72
2022/03/11 00:09:17;;;;;;;9.02;6.18;;;;;;;7.31;39.34;100916.22;5053394;28;20390;-72
2022/03/11 00:11:43;;;;;;;11.48;6.03;;;;;;;7.22;39.07;100921.25;5053223;28;20041;-72
2022/03/11 00:14:08;;;;;;;10.88;6.65;;;;;;;7.17;39.10;100927.81;5052653;28;20088;-72
2022/03/11 00:16:34;;;;;;;10.70;6.93;;;;;;;7.21;39.45;100918.75;5049571;28;20474;-72
2022/03/11 00:18:59;;;;;;;11.07;6.32;;;;;;;7.20;39.90;100914.44;5047221;28;20037;-72
2022/03/11 00:21:25;;;;;;;10.65;6.53;;;;;;;7.18;39.96;100914.56;5057536;28;20218;-72
2022/03/11 00:23:50;;;;;;;10.77;7.38;;;;;;;7.18;40.38;100908.47;5047209;28;20052;-72
2022/03/11 00:26:15;;;;;;;10.27;6.35;;;;;;;7.21;39.94;100910.84;5054493;28;20112;-73
2022/03/11 00:28:41;;;;;;;10.45;6.75;;;;;;;7.11;40.08;100907.28;5046687;28;20259;-72
2022/03/11 00:31:07;;;;;;;12.13;6.78;;;;;;;7.14;40.23;100912.28;5053407;28;20047;-72
2022/03/11 00:33:32;;;;;;;10.77;6.60;;;;;;;7.10;39.90;100910.84;5049865;28;20076;-72
2022/03/11 00:35:58;;;;;;;8.98;6.00;;;;;;;6.99;39.77;100917.78;5053799;28;20041;-73
2022/03/11 00:38:23;;;;;;;9.75;6.57;;;;;;;6.88;40.22;100919.56;5049602;28;20437;-72
2022/03/11 00:40:51;;;;;;;11.50;7.05;;;;;;;6.85;40.40;100919.81;5049265;28;20120;-73
2022/03/11 00:43:17;;;;;;;10.55;6.47;;;;;;;6.81;40.30;100911.31;5047423;28;20037;-72
2022/03/11 00:45:42;;;;;;;9.15;5.97;;;;;;;6.79;40.52;100908.81;5049695;28;20134;-72
2022/03/11 00:48:08;;;;;;;8.55;5.95;;;;;;;6.72;40.51;100909.38;5049445;28;20517;-73
2022/03/11 00:50:33;;;;;;;10.05;6.13;;;;;;;6.63;40.57;100904.84;5049287;28;20049;-72
2022/03/11 00:52:58;;;;;;;13.63;7.88;;;;;;;6.54;41.42;100906.38;5050856;28;20033;-73
2022/03/11 00:55:24;;;;;;;12.45;7.25;;;;;;;6.44;42.21;100905.41;5045107;28;20046;-73
2022/03/11 00:57:49;;;;;;;9.77;6.25;;;;;;;6.44;41.65;100901.00;5050653;28;20044;-72
2022/03/11 01:00:15;;;;;;;13.73;7.78;;;;;;;6.41;42.37;100893.31;5050368;28;20055;-72
2022/03/11 01:02:41;;;;;;;14.65;7.90;;;;;;;6.37;42.78;100889.28;5054933;28;20518;-72
2022/03/11 01:05:07;;;;;;;10.73;6.20;;;;;;;6.35;42.12;100888.53;5051500;28;20049;-72
2022/03/11 01:07:33;;;;;;;11.10;6.93;;;;;;;6.25;42.33;100884.94;5050061;28;20041;-72
2022/03/11 01:09:59;;;;;;;10.68;6.40;;;;;;;6.16;42.31;100889.09;5056123;28;20347;-72
2022/03/11 01:12:25;;;;;;;8.75;5.85;;;;;;;6.01;42.86;100872.69;5047807;28;20068;-72
2022/03/11 01:14:50;;;;;;;10.88;6.68;;;;;;;5.94;42.69;100868.84;5049658;28;20034;-73
2022/03/11 01:17:16;;;;;;;11.00;7.25;;;;;;;5.72;44.24;100865.16;5051916;28;20043;-72
2022/03/11 01:19:41;;;;;;;10.98;6.43;;;;;;;5.74;43.37;100868.50;5044810;28;20034;-72
2022/03/11 01:22:07;;;;;;;11.82;7.35;;;;;;;5.61;44.99;100865.09;5050020;28;20036;-73
2022/03/11 01:24:33;;;;;;;11.68;7.50;;;;;;;5.54;45.81;100846.31;5052492;28;20397;-72
2022/03/11 01:26:59;;;;;;;12.15;7.85;;;;;;;5.59;45.06;100864.34;5044329;28;20030;-72
2022/03/11 01:29:24;;;;;;;14.63;8.57;;;;;;;5.65;44.80;100845.56;5045377;28;20490;-72
2022/03/11 01:31:51;;;;;;;17.05;9.57;;;;;;;5.82;44.48;100859.22;5050156;28;20048;-72
2022/03/11 01:34:17;;;;;;;12.80;7.65;;;;;;;5.89;44.10;100863.91;5047083;28;20467;-72
2022/03/11 01:36:42;;;;;;;14.80;8.45;;;;;;;5.84;44.35;100857.28;5047017;28;20120;-72
2022/03/11 01:39:07;;;;;;;13.73;9.13;;;;;;;5.72;45.29;100862.53;5045578;28;20068;-73
2022/03/11 01:41:33;;;;;;;12.18;8.57;;;;;;;5.74;44.78;100859.75;5040587;28;20041;-72
2022/03/11 01:44:04;;;;;;;13.38;8.30;;;;;;;5.70;44.73;100859.16;5042038;28;20089;-72
2022/03/11 01:46:30;;;;;;;13.80;8.38;;;;;;;5.65;45.85;100860.44;5035765;28;20068;-72
2022/03/11 01:48:56;;;;;;;13.77;8.88;;;;;;;5.60;45.80;100857.31;5037384;28;20041;-72
2022/03/11 01:51:22;;;;;;;14.57;9.43;;;;;;;5.65;45.39;100861.28;5043612;28;20033;-72
2022/03/11 01:53:47;;;;;;;13.38;8.73;;;;;;;5.64;45.42;100851.72;5053206;28;20056;-72
2022/03/11 01:56:14;;;;;;;13.68;8.52;;;;;;;5.64;45.20;100851.72;5049363;28;20568;-72
2022/03/11 01:58:39;;;;;;;15.30;8.60;;;;;;;5.59;45.03;100861.72;5047689;28;20037;-72
2022/03/11 02:01:06;;;;;;;13.57;8.85;;;;;;;5.56;45.16;100858.50;5050391;28;20590;-72
2022/03/11 02:03:32;;;;;;;14.57;9.50;;;;;;;5.43;45.89;100861.16;5044322;28;20048;-73
2022/03/11 02:06:01;;;;;;;14.45;9.25;;;;;;;5.46;45.91;100866.19;5048606;28;20063;-72
2022/03/11 02:08:26;;;;;;;11.85;7.55;;;;;;;5.46;45.14;100858.34;5054521;28;20033;-71
2022/03/11 02:10:52;;;;;;;12.70;8.30;;;;;;;5.40;45.37;100850.91;5047106;28;20067;-72
2022/03/11 02:13:18;;;;;;;12.80;7.60;;;;;;;5.29;45.54;100849.88;5041699;28;20053;-71
2022/03/11 02:15:44;;;;;;;16.00;10.63;;;;;;;5.34;45.68;100849.56;5045743;28;20026;-71
2022/03/11 02:18:09;;;;;;;15.35;9.50;;;;;;;5.34;45.81;100852.19;5049752;28;20036;-72
2022/03/11 02:20:34;;;;;;;15.80;9.98;;;;;;;5.33;45.63;100853.94;5044272;28;20045;-71
2022/03/11 02:23:01;;;;;;;16.02;10.55;;;;;;;5.30;46.47;100846.31;5047391;28;20449;-71
2022/03/11 02:25:26;;;;;;;17.80;10.50;;;;;;;5.46;45.64;100840.81;5051333;28;20044;-71
2022/03/11 02:27:52;;;;;;;20.63;10.80;;;;;;;5.53;45.61;100822.84;5047103;28;20033;-71
2022/03/11 02:30:20;;;;;;;12.82;8.98;;;;;;;5.54;45.37;100829.75;5045863;28;20036;-71
2022/03/11 02:32:45;;;;;;;18.33;10.93;;;;;;;5.44;45.63;100831.38;5047706;28;20026;-71
2022/03/11 02:35:11;;;;;;;17.25;10.40;;;;;;;5.46;45.65;100829.47;5044536;28;20093;-71
2022/03/11 02:37:37;;;;;;;16.27;10.38;;;;;;;5.44;45.44;100831.38;5047322;28;20510;-71
2022/03/11 02:40:03;;;;;;;15.38;10.27;;;;;;;5.50;45.12;100825.66;5045163;28;20037;-71
2022/03/11 02:42:29;;;;;;;16.73;11.23;;;;;;;5.51;45.33;100827.34;5045929;28;20084;-72
2022/03/11 02:44:54;;;;;;;14.88;10.45;;;;;;;5.49;45.36;100826.63;5041859;28;20034;-71
2022/03/11 02:47:20;;;;;;;17.08;11.50;;;;;;;5.50;45.09;100829.13;5046758;28;20033;-71
2022/03/11 02:49:45;;;;;;;17.13;11.02;;;;;;;5.54;45.21;100833.22;5048018;28;20046;-73
2022/03/11 02:52:10;;;;;;;18.50;11.27;;;;;;;5.52;45.18;100821.16;5046607;28;20044;-71
2022/03/11 02:54:36;;;;;;;19.42;11.85;;;;;;;5.53;45.25;100820.22;5039716;28;20060;-71
2022/03/11 02:57:01;;;;;;;17.83;11.80;;;;;;;5.54;45.29;100827.97;5043952;28;20034;-71
2022/03/11 02:59:27;;;;;;;18.42;11.00;;;;;;;5.53;45.42;100820.22;5050582;28;20041;-71
2022/03/11 03:01:52;;;;;;;17.38;11.50;;;;;;;5.55;45.21;100828.78;5045749;28;20041;-72
2022/03/11 03:04:18;;;;;;;18.48;12.13;;;;;;;5.52;45.20;100834.25;5048791;28;20498;-72
2022/03/11 03:06:43;;;;;;;18.08;12.52;;;;;;;5.49;45.31;100826.63;5045572;28;20049;-72
2022/03/11 03:09:08;;;;;;;17.10;12.00;;;;;;;5.42;45.35;100826.22;5053219;28;20033;-72
2022/03/11 03:11:33;;;;;;;20.00;12.27;;;;;;;5.43;45.29;100824.44;5045659;28;20037;-72
2022/03/11 03:13:59;;;;;;;19.88;13.10;;;;;;;5.45;45.22;100827.78;5044844;28;20072;-71
2022/03/11 03:16:24;;;;;;;20.45;12.43;;;;;;;5.39;45.50;100813.34;5048757;28;20033;-71
2022/03/11 03:18:50;;;;;;;21.55;12.75;;;;;;;5.37;45.24;100814.41;5046606;28;20064;-71
2022/03/11 03:21:15;;;;;;;20.05;12.85;;;;;;;5.35;45.39;100809.25;5049066;28;20065;-72
2022/03/11 03:23:40;;;;;;;19.80;12.63;;;;;;;5.37;45.23;100814.41;5047492;28;20045;-72
2022/03/11 03:26:06;;;;;;;20.58;13.05;;;;;;;5.36;45.09;100815.34;5049201;28;20049;-72
2022/03/11 03:28:31;;;;;;;21.23;12.80;;;;;;;5.35;45.26;100813.69;5051585;28;20501;-72
2022/03/11 03:30:57;;;;;;;17.88;12.75;;;;;;;5.26;45.38;100823.03;5044427;28;20196;-72
2022/03/11 03:33:22;;;;;;;17.55;11.88;;;;;;;5.18;45.53;100815.72;5048614;28;20064;-72
2022/03/11 03:35:48;;;;;;;24.00;12.60;;;;;;;5.14;45.50;100818.69;5049525;28;20115;-72
2022/03/11 03:38:13;;;;;;;18.90;11.98;;;;;;;5.07;45.90;100816.47;5046851;28;20032;-71
2022/03/11 03:40:39;;;;;;;21.08;13.10;;;;;;;4.99;45.82;100824.06;5049486;28;20067;-72
2022/03/11 03:43:04;;;;;;;17.27;12.13;;;;;;;4.93;45.93;100815.78;5044698;28;20108;-72
2022/03/11 03:45:31;;;;;;;23.65;13.02;;;;;;;4.87;45.91;100825.75;5046314;28;20060;-71
2022/03/11 03:47:56;;;;;;;19.42;11.48;;;;;;;4.77;46.43;100827.34;5043458;28;20033;-71
2022/03/11 03:50:22;;;;;;;18.92;12.07;;;;;;;4.78;46.01;100823.78;5046779;28;20044;-71
2022/03/11 03:52:47;;;;;;;18.05;11.38;;;;;;;4.71;46.54;100812.06;5045473;28;20030;-72
2022/03/11 03:55:12;;;;;;;18.55;12.40;;;;;;;4.63;46.63;100820.44;5048853;28;20041;-71
2022/03/11 03:57:38;;;;;;;19.52;12.13;;;;;;;4.61;46.46;100819.72;5048488;28;20120;-71
2022/03/11 04:00:06;;;;;;;18.45;12.05;;;;;;;4.53;46.60;100823.78;5045136;28;20037;-71
2022/03/11 04:02:32;;;;;;;20.65;12.15;;;;;;;4.54;46.45;100822.88;5040086;28;20048;-72
2022/03/11 04:04:58;;;;;;;20.27;12.10;;;;;;;4.54;46.17;100810.59;5048917;28;20037;-71
2022/03/11 04:07:23;;;;;;;20.80;13.15;;;;;;;4.57;46.08;100815.63;5053712;28;20037;-72
2022/03/11 04:09:48;;;;;;;20.40;11.90;;;;;;;4.56;45.88;100824.44;5049901;28;20049;-72
2022/03/11 04:12:14;;;;;;;21.00;12.93;;;;;;;4.53;45.89;100823.78;5049766;28;20029;-71
2022/03/11 04:14:39;;;;;;;18.92;12.45;;;;;;;4.57;45.65;100817.41;5042766;28;20522;-71
2022/03/11 04:17:04;;;;;;;21.77;12.95;;;;;;;4.50;45.71;100822.22;5046814;28;20026;-71
2022/03/11 04:19:30;;;;;;;20.15;12.65;;;;;;;4.42;45.67;100828.00;5044205;28;20045;-71
2022/03/11 04:21:55;;;;;;;20.92;13.25;;;;;;;4.41;45.56;100822.84;5037876;28;20125;-72
2022/03/11 04:24:21;;;;;;;19.48;11.57;;;;;;;4.37;45.43;100832.72;5043189;28;20040;-72
2022/03/11 04:26:46;;;;;;;21.30;12.95;;;;;;;4.28;45.81;100827.25;5039014;28;20413;-71
2022/03/11 04:29:12;;;;;;;20.48;12.65;;;;;;;4.20;45.75;100835.66;5043400;28;20025;-73
2022/03/11 04:31:37;;;;;;;18.48;11.95;;;;;;;4.19;45.68;100836.56;5037162;28;20097;-72
2022/03/11 04:34:04;;;;;;;16.30;11.18;;;;;;;4.19;45.33;100826.94;5039035;28;20044;-73
2022/03/11 04:36:32;;;;;;;17.27;11.02;;;;;;;4.07;45.80;100834.78;5048728;28;20060;-73
2022/03/11 04:38:58;;;;;;;15.35;10.63;;;;;;;3.96;46.24;100830.28;5042956;28;20038;-72
2022/03/11 04:41:24;;;;;;;17.80;10.52;;;;;;;3.94;45.61;100845.22;5046974;28;20062;-72
2022/03/11 04:43:49;;;;;;;19.50;11.82;;;;;;;3.90;45.86;100844.56;5048234;28;20041;-72
2022/03/11 04:46:14;;;;;;;18.38;11.20;;;;;;;3.84;45.87;100845.00;5040812;28;20097;-72
2022/03/11 04:48:41;;;;;;;17.33;11.43;;;;;;;3.76;45.76;100850.72;5044961;28;20281;-72
2022/03/11 04:51:06;;;;;;;15.90;10.13;;;;;;;3.68;46.10;100847.75;5054555;28;20032;-72
2022/03/11 04:53:31;;;;;;;14.27;9.30;;;;;;;3.62;45.77;100848.16;5053087;28;20067;-72
2022/03/11 04:55:57;;;;;;;15.05;9.90;;;;;;;3.50;46.16;100855.00;5050989;28;20559;-73
2022/03/11 04:58:22;;;;;;;13.85;9.30;;;;;;;3.42;46.20;100854.66;5052918;28;20254;-72
2022/03/11 05:00:47;;;;;;;14.73;8.90;;;;;;;3.34;46.43;100865.63;5059857;28;20040;-72
2022/03/11 05:03:13;;;;;;;17.80;11.05;;;;;;;3.36;46.01;100866.34;5043007;28;20443;-73
2022/03/11 05:05:38;;;;;;;14.80;9.32;;;;;;;3.35;45.78;100862.06;5045235;28;20029;-72
2022/03/11 05:08:04;;;;;;;15.23;9.98;;;;;;;3.28;46.13;100868.59;5053676;28;20187;-72
2022/03/11 05:10:29;;;;;;;15.48;9.80;;;;;;;3.17;46.34;100873.66;5059170;28;20044;-72
2022/03/11 05:12:54;;;;;;;16.55;10.32;;;;;;;3.13;46.26;100872.19;5051552;28;20136;-72
2022/03/11 05:15:21;;;;;;;13.88;8.70;;;;;;;3.14;45.89;100866.84;5051193;28;20068;-72
2022/03/11 05:17:46;;;;;;;12.65;8.68;;;;;;;3.04;46.32;100872.75;5053024;28;20067;-72
2022/03/11 05:20:12;;;;;;;14.02;8.18;;;;;;;2.94;46.31;100877.72;5051341;28;20104;-71
2022/03/11 05:22:37;;;;;;;10.43;7.22;;;;;;;2.84;46.28;100876.59;5056596;28;20037;-72
2022/03/11 05:25:03;;;;;;;13.95;8.23;;;;;;;2.75;46.35;100868.38;5058280;28;20518;-72
2022/03/11 05:27:28;;;;;;;14.75;9.73;;;;;;;2.57;48.27;100868.66;5043059;28;20033;-71
2022/03/11 05:29:54;;;;;;;14.43;9.02;;;;;;;2.59;47.12;100872.84;5047829;28;20030;-72
2022/03/11 05:32:20;;;;;;;14.10;9.57;;;;;;;2.51;47.72;100865.47;5047335;28;20049;-72
2022/03/11 05:34:46;;;;;;;13.90;8.82;;;;;;;2.57;47.12;100877.31;5040735;28;20038;-73
2022/03/11 05:37:12;;;;;;;13.32;8.73;;;;;;;2.53;47.02;100879.28;5047417;28;20361;-72
2022/03/11 05:39:37;;;;;;;18.65;10.32;;;;;;;2.57;47.04;100877.31;5053310;28;20033;-71
2022/03/11 05:42:04;;;;;;;15.18;8.88;;;;;;;2.58;47.04;100876.38;5054549;28;20042;-72
2022/03/11 05:44:29;;;;;;;14.73;9.70;;;;;;;2.64;46.89;100872.56;5043594;28;20448;-72
2022/03/11 05:46:55;;;;;;;14.57;9.00;;;;;;;2.65;46.29;100872.47;5050794;28;20033;-72
2022/03/11 05:49:21;;;;;;;13.60;8.52;;;;;;;2.61;46.49;100875.38;5049227;28;20097;-71
2022/03/11 05:51:46;;;;;;;15.32;9.75;;;;;;;2.58;46.22;100859.91;5048590;28;20045;-72
2022/03/11 05:54:11;;;;;;;12.98;8.68;;;;;;;2.60;46.19;100861.47;5050398;28;20041;-72
2022/03/11 05:56:37;;;;;;;14.60;9.57;;;;;;;2.66;45.58;100865.47;5052599;28;20037;-72
2022/03/11 05:59:03;;;;;;;15.35;8.65;;;;;;;2.70;46.09;100870.44;5042444;28;20047;-72
2022/03/11 06:01:28;;;;;;;13.73;8.57;;;;;;;2.67;45.47;100861.94;5057398;28;20102;-72
2022/03/11 06:03:54;;;;;;;13.98;8.95;;;;;;;2.66;45.51;100863.69;5048711;28;20030;-72
2022/03/11 06:06:19;;;;;;;15.50;10.02;;;;;;;2.73;45.01;100857.19;5035427;28;20370;-72
2022/03/11 06:08:45;;;;;;;14.15;8.60;;;;;;;2.78;45.03;100863.91;5040777;28;20039;-72
2022/03/11 06:11:10;;;;;;;16.70;9.65;;;;;;;2.85;44.47;100858.22;5045384;28;20047;-73
2022/03/11 06:13:36;;;;;;;12.95;8.68;;;;;;;2.90;44.25;100869.19;5051609;28;20296;-72
2022/03/11 06:16:02;;;;;;;16.67;9.45;;;;;;;2.93;44.31;100849.88;5055346;28;20041;-71
2022/03/11 06:18:28;;;;;;;14.82;9.20;;;;;;;3.04;43.97;100857.91;5047401;28;20045;-72
2022/03/11 06:20:53;;;;;;;16.77;9.48;;;;;;;3.15;43.96;100852.88;5049300;28;20045;-72
2022/03/11 06:23:19;;;;;;;15.00;8.95;;;;;;;3.26;43.40;100853.97;5050057;28;20044;-72
2022/03/11 06:25:44;;;;;;;14.45;9.10;;;;;;;3.34;43.33;100856.94;5039662;28;20040;-72
2022/03/11 06:28:10;;;;;;;13.45;8.13;;;;;;;3.42;43.51;100859.91;5055529;28;20276;-72
2022/03/11 06:30:35;;;;;;;15.70;9.85;;;;;;;3.52;42.97;100860.97;5057347;28;20057;-72
2022/03/11 06:33:01;;;;;;;13.10;8.38;;;;;;;3.68;42.39;100857.38;5050776;28;20038;-71
2022/03/11 06:35:26;;;;;;;13.15;8.35;;;;;;;3.90;42.17;100862.88;5046792;28;20041;-71
2022/03/11 06:37:52;;;;;;;13.73;8.10;;;;;;;4.14;42.04;100867.44;5053009;28;20039;-71
2022/03/11 06:40:18;;;;;;;15.15;8.52;;;;;;;4.42;41.86;100867.28;5049533;28;20041;-71
2022/03/11 06:42:45;;;;;;;13.52;8.27;;;;;;;4.80;41.64;100871.69;5052626;28;20033;-71
2022/03/11 06:45:13;;;;;;;15.48;7.82;;;;;;;5.09;41.40;100874.03;5052280;28;20141;-72
2022/03/11 06:47:38;;;;;;;13.88;8.82;;;;;;;5.37;40.55;100886.03;5046665;28;20526;-72
2022/03/11 06:50:05;;;;;;;10.77;6.90;;;;;;;5.63;40.86;100881.56;5047271;28;20037;-72
2022/03/11 06:52:31;;;;;;;10.10;6.88;;;;;;;5.77;40.82;100882.31;5049764;28;20064;-72
2022/03/11 06:54:56;;;;;;;11.63;7.78;;;;;;;5.92;40.04;100873.34;5047053;28;20038;-72
2022/03/11 06:57:21;;;;;;;10.30;6.70;;;;;;;6.26;40.11;100884.81;5056239;28;20047;-72
2022/03/11 06:59:48;;;;;;;10.52;7.18;;;;;;;6.71;39.37;100887.53;5054509;28;20095;-72
2022/03/11 07:02:14;;;;;;;13.00;8.38;;;;;;;6.98;37.23;100884.56;5056440;28;20041;-73
2022/03/11 07:04:40;;;;;;;10.90;7.65;;;;;;;7.23;36.64;100887.91;5057043;28;20039;-72
2022/03/11 07:07:06;;;;;;;9.82;6.45;;;;;;;7.74;37.60;100892.56;5054869;28;20401;-73
2022/03/11 07:09:32;;;;;;;9.18;6.70;;;;;;;8.16;36.48;100897.09;5046442;28;20025;-74
2022/03/11 07:12:00;;;;;;;10.43;6.97;;;;;;;8.44;36.20;100890.41;5044972;28;20097;-73
2022/03/11 07:14:27;;;;;;;9.02;6.05;;;;;;;8.93;36.56;100887.03;5051192;28;20064;-74
2022/03/11 07:16:53;;;;;;;9.95;6.95;;;;;;;9.19;34.80;100880.47;5057706;28;20033;-73
2022/03/11 07:19:22;;;;;;;10.40;7.88;;;;;;;9.18;33.07;100892.84;5043978;28;20124;-74
2022/03/11 07:21:47;;;;;;;11.50;6.95;;;;;;;8.91;33.67;100891.63;5051104;28;20397;-73
2022/03/11 07:24:12;;;;;;;11.32;7.90;;;;;;;8.82;33.18;100889.78;5054739;28;20045;-73
2022/03/11 07:26:38;;;;;;;9.25;6.70;;;;;;;8.55;33.62;100903.47;5050100;28;20047;-73
2022/03/11 07:29:03;;;;;;;9.50;6.72;;;;;;;8.18;33.79;100901.25;5058845;28;20029;-73
2022/03/11 07:31:28;;;;;;;13.25;7.30;;;;;;;7.79;33.09;100898.28;5052500;28;20039;-73
2022/03/11 07:33:55;;;;;;;12.43;8.90;;;;;;;7.25;33.11;100888.63;5058014;28;20039;-73
2022/03/11 07:36:21;;;;;;;11.13;7.53;;;;;;;6.84;33.76;100892.69;5051011;28;20033;-73
2022/03/11 07:38:46;;;;;;;12.88;7.28;;;;;;;6.58;34.30;100890.28;5048981;28;20055;-73
2022/03/11 07:41:14;;;;;;;13.07;8.00;;;;;;;6.46;34.68;100899.09;5049282;28;20038;-73
2022/03/11 07:43:42;;;;;;;11.82;7.40;;;;;;;6.22;35.39;100890.41;5046160;28;20069;-73
2022/03/11 07:46:08;;;;;;;11.73;7.13;;;;;;;6.26;35.20;100897.13;5051492;28;20094;-73
2022/03/11 07:48:34;;;;;;;14.40;8.40;;;;;;;6.24;35.11;100893.75;5053706;28;20032;-73
2022/03/11 07:50:59;;;;;;;11.70;7.20;;;;;;;6.12;34.93;100893.72;5053881;28;20033;-73
2022/03/11 07:53:24;;;;;;;10.93;7.55;;;;;;;6.03;35.29;100889.16;5059106;28;20044;-73
2022/03/11 07:55:50;;;;;;;12.38;8.38;;;;;;;5.99;35.81;100885.09;5054588;28;20029;-73
2022/03/11 07:58:15;;;;;;;13.23;8.70;;;;;;;5.96;35.39;100887.94;5046576;28;20029;-72
2022/03/11 08:00:41;;;;;;;12.13;8.02;;;;;;;5.94;35.59;100890.69;5044256;28;20188;-73
2022/03/11 08:03:07;;;;;;;14.50;7.93;;;;;;;5.90;35.56;100888.34;5044141;28;20047;-73
2022/03/11 08:05:32;;;;;;;11.77;7.57;;;;;;;5.97;35.67;100892.22;5035597;28;20061;-73
2022/03/11 08:07:59;;;;;;;12.13;7.78;;;;;;;6.09;35.71;100888.69;5037352;28;20037;-73
2022/03/11 08:10:24;;;;;;;11.18;7.57;;;;;;;6.03;35.39;100890.94;5035867;28;20154;-73
2022/03/11 08:12:50;;;;;;;13.70;7.93;;;;;;;6.06;35.47;100890.72;5037658;28;20081;-73
2022/03/11 08:15:17;;;;;;;13.40;8.55;;;;;;;6.11;35.49;100891.22;5036626;28;20113;-73
2022/03/11 08:17:43;;;;;;;12.18;7.78;;;;;;;6.24;35.47;100894.59;5035369;28;20068;-73
2022/03/11 08:20:09;;;;;;;11.48;7.47;;;;;;;6.41;36.03;100888.06;5035701;28;20080;-73
2022/03/11 08:22:35;;;;;;;12.80;7.72;;;;;;;6.95;35.23;100894.47;5036397;28;20033;-73
2022/03/11 08:25:00;;;;;;;13.55;8.65;;;;;;;7.56;34.51;100886.19;5036507;28;20022;-73
2022/03/11 08:27:26;;;;;;;12.02;7.90;;;;;;;8.21;33.42;100894.91;5037813;28;20095;-73
2022/03/11 08:29:51;;;;;;;10.00;7.38;;;;;;;8.67;32.02;100899.78;5058367;28;20032;-73
2022/03/11 08:32:16;;;;;;;11.93;8.00;;;;;;;9.13;31.44;100898.50;5045240;28;20045;-73
2022/03/11 08:34:42;;;;;;;11.75;7.78;;;;;;;9.47;30.79;100903.47;5039944;28;20036;-71
2022/03/11 08:37:07;;;;;;;11.57;7.80;;;;;;;9.96;30.64;100907.03;5040765;28;20052;-74
2022/03/11 08:39:32;;;;;;;10.40;7.72;;;;;;;10.39;29.97;100905.78;5038014;28;20041;-72
2022/03/11 08:41:57;;;;;;;12.05;7.80;;;;;;;10.68;28.79;100906.69;5039737;28;20038;-72
2022/03/11 08:44:23;;;;;;;10.40;7.80;;;;;;;10.81;29.16;100901.91;5040345;28;20033;-72
2022/03/11 08:46:48;;;;;;;10.27;7.53;;;;;;;11.08;28.71;100890.53;5039521;28;20033;-72
2022/03/11 08:49:14;;;;;;;11.00;7.95;;;;;;;11.46;28.34;100893.97;5040313;28;20022;-71
2022/03/11 08:51:41;;;;;;;10.98;7.60;;;;;;;11.61;27.70;100887.19;5040649;28;20047;-72
2022/03/11 08:54:06;;;;;;;13.02;8.00;;;;;;;11.75;27.43;100879.69;5039991;28;20033;-71
2022/03/11 08:56:31;;;;;;;11.68;7.15;;;;;;;12.26;27.63;100879.03;5042944;28;20048;-72
2022/03/11 08:58:57;;;;;;;10.65;7.93;;;;;;;12.85;26.42;100878.41;5038598;28;20029;-73
2022/03/11 09:01:22;;;;;;;10.13;7.35;;;;;;;13.06;26.31;100864.72;5045851;28;20029;-73
2022/03/11 09:03:48;;;;;;;10.70;7.88;;;;;;;13.22;25.86;100864.78;5040011;28;20038;-73
2022/03/11 09:06:13;;;;;;;12.13;7.78;;;;;;;13.41;25.13;100861.06;5040075;28;20089;-73
2022/03/11 09:08:39;;;;;;;10.15;7.30;;;;;;;13.59;25.61;100859.13;5039508;28;20029;-72
2022/03/11 09:11:05;;;;;;;9.65;6.97;;;;;;;13.87;24.92;100852.66;5041096;28;20035;-73
2022/03/11 09:13:31;;;;;;;13.38;7.82;;;;;;;14.16;23.81;100849.53;5040234;28;20033;-73
2022/03/11 09:15:56;;;;;;;10.48;7.47;;;;;;;14.47;24.33;100849.66;5041224;28;20060;-73
2022/03/11 09:18:22;;;;;;;9.80;7.07;;;;;;;15.05;24.10;100845.81;5038902;28;20056;-73
2022/03/11 09:20:47;;;;;;;10.13;7.20;;;;;;;15.02;23.31;100843.53;5041417;28;20036;-71
2022/03/11 09:23:13;;;;;;;9.10;7.25;;;;;;;15.25;23.30;100843.59;5042608;28;20033;-71
2022/03/11 09:25:38;;;;;;;11.02;7.60;;;;;;;15.49;22.76;100839.94;5043052;28;20042;-71
2022/03/11 09:28:05;;;;;;;9.23;7.13;;;;;;;15.64;22.58;100847.19;5042618;28;20570;-71
2022/03/11 09:30:30;;;;;;;11.20;7.63;;;;;;;15.76;22.23;100836.97;5061242;28;20052;-71
2022/03/11 09:32:56;;;;;;;10.95;8.13;;;;;;;15.92;21.85;100827.00;5040644;28;20034;-70
2022/03/11 09:35:21;;;;;;;11.00;7.95;;;;;;;15.59;22.30;100837.06;5041075;28;20041;-70
2022/03/11 09:37:46;;;;;;;10.23;7.70;;;;;;;15.77;22.22;100836.78;5040001;28;20120;-71
2022/03/11 09:40:12;;;;;;;9.63;7.60;;;;;;;15.86;22.39;100835.72;5040832;28;20058;-70
2022/03/11 09:42:38;;;;;;;12.13;7.97;;;;;;;15.90;22.20;100837.00;5043197;28;20037;-70
2022/03/11 09:45:05;;;;;;;9.93;7.32;;;;;;;16.42;21.77;100834.53;5041368;28;20064;-71
2022/03/11 09:47:30;;;;;;;8.68;6.88;;;;;;;16.58;21.85;100830.88;5042042;28;20033;-70
2022/03/11 09:49:56;;;;;;;10.88;7.97;;;;;;;16.83;21.33;100826.09;5043071;28;20029;-70
2022/03/11 09:52:23;;;;;;;12.68;7.57;;;;;;;17.14;20.99;100828.56;5041840;28;20069;-70
2022/03/11 09:54:49;;;;;;;9.10;6.88;;;;;;;17.40;21.04;100828.03;5042815;28;20049;-70
2022/03/11 09:57:22;;;;;;;9.18;6.45;;;;;;;18.29;21.01;100834.84;5040074;28;20029;-71
2022/03/11 09:59:48;;;;;;;9.90;7.63;;;;;;;18.77;19.37;100840.31;5040018;28;20036;-71
2022/03/11 10:02:17;;;;;;;9.02;6.38;;;;;;;19.30;19.98;100832.47;5051781;28;20033;-71
2022/03/11 10:04:51;;;;;;;10.07;6.88;;;;;;;20.19;18.45;100825.19;5061781;28;20025;-71
2022/03/11 10:07:31;;;;;;;9.57;6.63;;;;;;;20.34;18.41;100823.13;5060652;28;20044;-71
2022/03/11 10:10:09;;;;;;;9.60;7.38;;;;;;;21.20;18.34;100830.09;5061211;28;20422;-70
2022/03/11 10:12:41;;;;;;;9.73;7.30;;;;;;;21.41;17.56;100832.50;5059340;28;20033;-71
2022/03/11 10:15:06;;;;;;;;;;;;;;;21.15;17.49;100830.75;5060218;28;20033;-71
2022/03/11 10:17:42;;;;;;;6.95;5.60;;;;;;;21.77;18.13;100824.81;5060931;28;19912;-71
2022/03/11 10:20:12;;;;;;;9.00;6.20;;;;;;;22.45;16.99;100827.56;5060114;28;20051;-71
2022/03/11 10:22:40;;;;;;;10.50;7.18;;;;;;;22.59;16.68;100830.13;5059793;28;20087;-71
2022/03/11 10:25:13;;;;;;;9.18;6.75;;;;;;;22.91;16.56;100830.81;5059990;28;20108;-71
2022/03/11 10:28:01;;;;;;;8.63;6.82;;;;;;;23.14;16.17;100832.81;5057900;28;20067;-72
2022/03/11 10:30:28;;;;;;;8.60;6.43;;;;;;;23.20;16.02;100833.78;5039067;28;20029;-72
2022/03/11 10:32:59;;;;;;;9.38;7.35;;;;;;;22.93;16.00;100839.50;5039726;28;20556;-72
2022/03/11 10:35:47;;;;;;;7.55;6.65;;;;;;;22.75;16.36;100832.22;5038509;28;20033;-72
2022/03/11 10:38:18;;;;;;;7.85;6.13;;;;;;;23.62;16.03;100829.25;5037573;28;20040;-72
2022/03/11 10:40:54;;;;;;;8.95;6.63;;;;;;;24.08;15.46;100835.81;5039687;28;20548;-72
2022/03/11 10:43:26;;;;;;;7.85;5.72;;;;;;;24.14;15.72;100818.66;5037856;28;20037;-72
2022/03/11 10:46:06;;;;;;;8.93;6.05;;;;;;;24.79;15.46;100814.97;5036821;28;20083;-72
2022/03/11 10:48:51;;;;;;;9.20;6.82;;;;;;;25.41;14.08;100817.00;5038096;28;20033;-73
2022/03/11 10:51:30;;;;;;;8.50;6.93;;;;;;;24.27;14.78;100816.78;5038623;28;20464;-72
2022/03/11 10:53:56;;;;;;;10.10;7.45;;;;;;;23.91;15.00;100824.06;5039616;28;20037;-72
2022/03/11 10:56:50;;;;;;;8.20;6.72;;;;;;;24.29;15.26;100820.91;5036785;28;20068;-73
2022/03/11 10:59:22;;;;;;;8.80;6.70;;;;;;;24.62;14.41;100815.94;5025907;28;20056;-72
2022/03/11 11:01:50;;;;;;;8.75;6.63;;;;;;;25.04;14.43;100816.53;5038791;28;20061;-72
2022/03/11 11:04:17;;;;;;;8.43;6.35;;;;;;;25.11;14.77;100814.50;5037350;28;20175;-72
2022/03/11 11:06:42;;;;;;;7.68;6.18;;;;;;;25.88;14.58;100807.78;5040812;28;20033;-72
2022/03/11 11:09:10;;;;;;;9.85;6.95;;;;;;;25.78;13.71;100799.47;5039590;28;20021;-72
2022/03/11 11:11:36;;;;;;;8.13;6.47;;;;;;;26.62;13.75;100801.28;5039053;28;20048;-72
2022/03/11 11:14:05;;;;;;;7.57;6.10;;;;;;;26.80;13.55;100800.16;5039025;28;20548;-72
2022/03/11 11:16:38;;;;;;;10.57;7.38;;;;;;;26.15;13.44;100798.97;5038438;28;20037;-73
2022/03/11 11:19:07;;;;;;;8.18;6.72;;;;;;;25.29;13.95;100794.59;5038852;28;20029;-72
2022/03/11 11:21:34;;;;;;;8.32;6.70;;;;;;;25.66;13.88;100785.19;5038913;28;20040;-72